Time;durP1;ratioP1;P1;durP2;ratioP2;P2;SDS_P1;SDS_P2;PMS_P1;PMS_P2;Temp;Humidity;BMP_temperature;BMP_pressure;BME280_temperature;BME280_humidity;BME280_pressure;Samples;Min_cycle;Max_cycle;Signal;HPM_P1;HPM_P2
2023/07/13 00:02:06;;;;;;;2.30;1.43;;;;;;;;;;5048745;27;87814;-55
2023/07/13 00:04:34;;;;;;;4.70;1.50;;;;;;;;;;5041539;27;87732;-55
2023/07/13 00:07:02;;;;;;;3.80;1.80;;;;;;;;;;5042114;27;88774;-55
2023/07/13 00:09:31;;;;;;;2.50;1.10;;;;;;;;;;5041540;27;90183;-54
2023/07/13 00:11:59;;;;;;;3.80;1.50;;;;;;;;;;5044116;27;89806;-54
2023/07/13 00:14:29;;;;;;;3.17;1.40;;;;;;;;;;5041413;28;87583;-55
2023/07/13 00:17:00;;;;;;;2.47;1.00;;;;;;;;;;5045634;27;89822;-55
2023/07/13 00:19:28;;;;;;;3.43;1.27;;;;;;;;;;5041328;27;88059;-55
2023/07/13 00:21:57;;;;;;;5.87;1.80;;;;;;;;;;5048964;27;87891;-55
2023/07/13 00:24:27;;;;;;;4.00;1.30;;;;;;;;;;5041063;27;87593;-54
2023/07/13 00:26:55;;;;;;;1.60;1.30;;;;;;;;;;5041770;27;89663;-55
2023/07/13 00:29:24;;;;;;;2.70;1.40;;;;;;;;;;5044141;27;88286;-55
2023/07/13 00:31:54;;;;;;;4.00;1.13;;;;;;;;;;5040867;27;88063;-54
2023/07/13 00:34:23;;;;;;;3.40;1.47;;;;;;;;;;5040840;27;87821;-54
2023/07/13 00:36:52;;;;;;;3.10;1.10;;;;;;;;;;5044259;27;88884;-54
2023/07/13 00:39:20;;;;;;;1.50;1.00;;;;;;;;;;5041801;27;89237;-54
2023/07/13 00:41:49;;;;;;;2.60;1.50;;;;;;;;;;5042704;27;88451;-54
2023/07/13 00:44:17;;;;;;;1.43;1.20;;;;;;;;;;5041272;27;87200;-55
2023/07/13 00:46:45;;;;;;;1.77;0.90;;;;;;;;;;5040809;27;88689;-55
2023/07/13 00:49:17;;;;;;;7.20;1.60;;;;;;;;;;5040719;27;88936;-54
2023/07/13 00:51:49;;;;;;;6.27;1.47;;;;;;;;;;5044980;27;87423;-54
2023/07/13 00:54:19;;;;;;;1.40;1.03;;;;;;;;;;5041833;27;88965;-54
2023/07/13 00:56:49;;;;;;;1.93;0.97;;;;;;;;;;5040712;27;88595;-55
2023/07/13 00:59:17;;;;;;;1.47;1.00;;;;;;;;;;5040052;27;90059;-54
2023/07/13 01:01:45;;;;;;;1.63;0.90;;;;;;;;;;5039905;27;88708;-55
2023/07/13 01:04:15;;;;;;;5.10;1.90;;;;;;;;;;5042549;27;87435;-55
2023/07/13 01:06:44;;;;;;;4.20;1.10;;;;;;;;;;5041357;27;88722;-54
2023/07/13 01:09:12;;;;;;;2.00;1.10;;;;;;;;;;5040718;27;88074;-55
2023/07/13 01:11:41;;;;;;;2.30;1.20;;;;;;;;;;5042235;27;88048;-55
2023/07/13 01:14:10;;;;;;;4.10;1.60;;;;;;;;;;5051331;27;87503;-55
2023/07/13 01:16:39;;;;;;;3.83;1.23;;;;;;;;;;5043817;27;87490;-54
2023/07/13 01:19:09;;;;;;;1.93;0.90;;;;;;;;;;5045889;27;89487;-55
2023/07/13 01:21:42;;;;;;;1.37;0.93;;;;;;;;;;5040890;27;89159;-55
2023/07/13 01:24:11;;;;;;;2.57;0.87;;;;;;;;;;5040775;27;88106;-54
2023/07/13 01:26:39;;;;;;;1.53;0.80;;;;;;;;;;5042377;27;88740;-55
2023/07/13 01:29:08;;;;;;;2.10;0.83;;;;;;;;;;5051022;27;87365;-54
2023/07/13 01:31:36;;;;;;;1.73;0.97;;;;;;;;;;5041483;27;89133;-55
2023/07/13 01:34:04;;;;;;;1.13;0.80;;;;;;;;;;5049034;27;87652;-55
2023/07/13 01:36:34;;;;;;;1.00;0.77;;;;;;;;;;5044017;27;89653;-54
2023/07/13 01:39:04;;;;;;;1.87;1.03;;;;;;;;;;5062802;27;89078;-55
2023/07/13 01:41:32;;;;;;;1.87;0.90;;;;;;;;;;5063575;27;88968;-55
2023/07/13 01:44:00;;;;;;;1.20;0.87;;;;;;;;;;5050937;27;87668;-55
2023/07/13 01:46:29;;;;;;;1.73;0.80;;;;;;;;;;5058781;27;88611;-55
2023/07/13 01:48:58;;;;;;;2.53;0.90;;;;;;;;;;5046474;27;90081;-55
2023/07/13 01:51:26;;;;;;;3.27;0.97;;;;;;;;;;5044593;27;89865;-54
2023/07/13 01:53:54;;;;;;;1.07;0.77;;;;;;;;;;5050376;27;87642;-55
2023/07/13 01:56:24;;;;;;;1.23;0.77;;;;;;;;;;5033862;28;88565;-54
2023/07/13 01:58:53;;;;;;;0.87;0.70;;;;;;;;;;5051461;27;88361;-55
2023/07/13 02:01:21;;;;;;;1.33;0.60;;;;;;;;;;5047714;27;89080;-54
2023/07/13 02:03:49;;;;;;;5.83;0.80;;;;;;;;;;5046630;27;87367;-54
2023/07/13 02:06:18;;;;;;;3.03;0.70;;;;;;;;;;5043512;27;88793;-54
2023/07/13 02:08:46;;;;;;;1.03;0.63;;;;;;;;;;5051497;27;88164;-55
2023/07/13 02:11:14;;;;;;;2.90;1.13;;;;;;;;;;5063715;27;87900;-55
2023/07/13 02:13:44;;;;;;;3.20;0.80;;;;;;;;;;5051730;27;87976;-55
2023/07/13 02:16:12;;;;;;;0.73;0.73;;;;;;;;;;5044479;27;88588;-54
2023/07/13 02:18:41;;;;;;;2.03;0.80;;;;;;;;;;5042739;27;89172;-55
2023/07/13 02:21:10;;;;;;;0.53;0.53;;;;;;;;;;5042938;27;87413;-54
2023/07/13 02:23:38;;;;;;;2.00;1.00;;;;;;;;;;5048150;27;87590;-54
2023/07/13 02:26:06;;;;;;;0.80;0.80;;;;;;;;;;5049789;27;87368;-55
2023/07/13 02:28:35;;;;;;;2.53;1.13;;;;;;;;;;5045436;27;89177;-54
2023/07/13 02:31:08;;;;;;;2.07;1.23;;;;;;;;;;5043551;27;87791;-54
2023/07/13 02:33:37;;;;;;;2.40;1.20;;;;;;;;;;5045528;27;87568;-55
2023/07/13 02:36:06;;;;;;;1.63;1.07;;;;;;;;;;5043928;27;88495;-55
2023/07/13 02:38:35;;;;;;;4.53;1.70;;;;;;;;;;5044424;27;89020;-54
2023/07/13 02:41:04;;;;;;;2.30;1.53;;;;;;;;;;5055946;27;89896;-54
2023/07/13 02:43:32;;;;;;;3.13;1.83;;;;;;;;;;5045135;27;87695;-54
2023/07/13 02:46:07;;;;;;;1.30;1.20;;;;;;;;;;5041585;28;88819;-55
2023/07/13 02:48:41;;;;;;;2.10;1.33;;;;;;;;;;5032783;27;88494;-54
2023/07/13 02:51:10;;;;;;;3.37;1.87;;;;;;;;;;5041932;27;87710;-55
2023/07/13 02:53:40;;;;;;;2.87;1.60;;;;;;;;;;5027406;27;87635;-54
2023/07/13 02:56:08;;;;;;;3.30;1.87;;;;;;;;;;5054570;27;89815;-55
2023/07/13 02:58:38;;;;;;;4.10;1.97;;;;;;;;;;5039027;27;88920;-55
2023/07/13 03:01:10;;;;;;;4.33;2.30;;;;;;;;;;5028933;28;87721;-55
2023/07/13 03:03:38;;;;;;;6.00;2.63;;;;;;;;;;5040167;27;89522;-55
2023/07/13 03:06:08;;;;;;;5.53;2.87;;;;;;;;;;5019379;28;88032;-55
2023/07/13 03:08:37;;;;;;;3.60;2.50;;;;;;;;;;5039075;27;88263;-55
2023/07/13 03:11:07;;;;;;;3.40;2.67;;;;;;;;;;5047126;27;88642;-55
2023/07/13 03:13:35;;;;;;;3.27;2.13;;;;;;;;;;5059849;27;87407;-55
2023/07/13 03:16:04;;;;;;;5.10;2.97;;;;;;;;;;5047019;27;88551;-56
2023/07/13 03:18:32;;;;;;;3.77;2.70;;;;;;;;;;5038745;27;88709;-55
2023/07/13 03:21:01;;;;;;;5.83;2.70;;;;;;;;;;5042803;27;88133;-55
2023/07/13 03:23:30;;;;;;;5.17;3.30;;;;;;;;;;5039251;27;87541;-55
2023/07/13 03:26:03;;;;;;;5.97;2.50;;;;;;;;;;5050281;27;88807;-55
2023/07/13 03:28:31;;;;;;;5.90;2.80;;;;;;;;;;5038446;27;89143;-54
2023/07/13 03:31:03;;;;;;;4.67;2.60;;;;;;;;;;5046688;27;88887;-55
2023/07/13 03:33:31;;;;;;;3.60;2.37;;;;;;;;;;5039004;27;87706;-55
2023/07/13 03:36:00;;;;;;;5.50;3.07;;;;;;;;;;5050391;27;89802;-55
2023/07/13 03:38:28;;;;;;;4.30;2.73;;;;;;;;;;5037331;28;88402;-55
2023/07/13 03:40:59;;;;;;;4.33;2.90;;;;;;;;;;5040413;27;88226;-55
2023/07/13 03:43:27;;;;;;;4.53;2.43;;;;;;;;;;5038986;27;87524;-55
2023/07/13 03:45:55;;;;;;;4.80;2.73;;;;;;;;;;5039709;27;88533;-55
2023/07/13 03:48:24;;;;;;;3.57;2.47;;;;;;;;;;5037861;27;88527;-54
2023/07/13 03:50:52;;;;;;;5.80;2.50;;;;;;;;;;5039300;27;87821;-55
2023/07/13 03:53:21;;;;;;;3.97;2.40;;;;;;;;;;5038485;28;88444;-57
2023/07/13 03:55:49;;;;;;;2.63;2.10;;;;;;;;;;5052094;27;88571;-54
2023/07/13 03:58:32;;;;;;;4.47;2.53;;;;;;;;;;5039839;27;87484;-55
2023/07/13 04:01:01;;;;;;;7.13;2.50;;;;;;;;;;5044668;27;87966;-55
2023/07/13 04:03:32;;;;;;;3.43;2.10;;;;;;;;;;5041910;27;88009;-55
2023/07/13 04:06:01;;;;;;;4.00;2.60;;;;;;;;;;5032805;27;87570;-55
2023/07/13 04:08:29;;;;;;;4.33;2.23;;;;;;;;;;5042937;27;88518;-54
2023/07/13 04:10:58;;;;;;;4.40;2.73;;;;;;;;;;5054282;27;88507;-55
2023/07/13 04:13:26;;;;;;;2.77;2.00;;;;;;;;;;5042079;27;87629;-55
2023/07/13 04:15:56;;;;;;;3.30;1.97;;;;;;;;;;5044851;27;88706;-55
2023/07/13 04:18:24;;;;;;;4.23;1.93;;;;;;;;;;5040889;27;90059;-55
2023/07/13 04:20:53;;;;;;;3.60;2.10;;;;;;;;;;5051198;27;87607;-55
2023/07/13 04:23:21;;;;;;;3.90;2.20;;;;;;;;;;5039521;27;89359;-55
2023/07/13 04:25:52;;;;;;;3.90;2.20;;;;;;;;;;5040182;27;88584;-55
2023/07/13 04:28:21;;;;;;;3.23;2.00;;;;;;;;;;5047940;27;89306;-55
2023/07/13 04:30:49;;;;;;;5.00;2.13;;;;;;;;;;5046203;27;87401;-55
2023/07/13 04:33:22;;;;;;;3.20;2.07;;;;;;;;;;5041328;27;87695;-55
2023/07/13 04:35:54;;;;;;;2.37;1.50;;;;;;;;;;5047826;27;89761;-55
2023/07/13 04:38:22;;;;;;;2.00;1.40;;;;;;;;;;5041561;27;88581;-55
2023/07/13 04:40:51;;;;;;;2.50;1.13;;;;;;;;;;5046399;27;87839;-55
2023/07/13 04:43:19;;;;;;;3.10;1.50;;;;;;;;;;5040801;27;88211;-54
2023/07/13 04:45:48;;;;;;;2.90;2.30;;;;;;;;;;5047827;27;88684;-55
2023/07/13 04:48:16;;;;;;;2.10;1.37;;;;;;;;;;5047318;27;89775;-55
2023/07/13 04:50:46;;;;;;;4.73;1.23;;;;;;;;;;5041901;27;88917;-55
2023/07/13 04:53:14;;;;;;;4.57;1.87;;;;;;;;;;5040987;27;87654;-55
2023/07/13 04:55:43;;;;;;;2.60;1.40;;;;;;;;;;5037750;27;89814;-55
2023/07/13 04:58:11;;;;;;;3.80;1.40;;;;;;;;;;5040374;27;89257;-54
2023/07/13 05:00:40;;;;;;;2.73;1.33;;;;;;;;;;5042368;27;87814;-55
2023/07/13 05:03:08;;;;;;;1.57;1.23;;;;;;;;;;5053219;27;87653;-55
2023/07/13 05:05:37;;;;;;;2.20;1.43;;;;;;;;;;5051653;27;88490;-55
2023/07/13 05:08:07;;;;;;;2.60;1.50;;;;;;;;;;5042764;27;89940;-55
2023/07/13 05:10:35;;;;;;;2.70;1.20;;;;;;;;;;5039999;27;88817;-55
2023/07/13 05:13:04;;;;;;;2.17;1.23;;;;;;;;;;5046444;27;87383;-55
2023/07/13 05:15:32;;;;;;;3.50;1.60;;;;;;;;;;5060710;27;88699;-55
2023/07/13 05:18:00;;;;;;;2.77;1.23;;;;;;;;;;5041999;27;88276;-55
2023/07/13 05:20:29;;;;;;;1.40;1.20;;;;;;;;;;5027755;28;88537;-55
2023/07/13 05:22:57;;;;;;;2.37;1.17;;;;;;;;;;5040610;27;87595;-55
2023/07/13 05:25:27;;;;;;;4.00;0.90;;;;;;;;;;5051794;27;89696;-55
2023/07/13 05:27:55;;;;;;;2.10;1.20;;;;;;;;;;5045560;27;87608;-55
2023/07/13 05:30:24;;;;;;;2.10;1.30;;;;;;;;;;5046416;27;87701;-55
2023/07/13 05:32:52;;;;;;;3.13;0.80;;;;;;;;;;5039234;27;88026;-54
2023/07/13 05:35:21;;;;;;;1.53;1.20;;;;;;;;;;5040237;27;91131;-55
2023/07/13 05:37:49;;;;;;;2.60;0.90;;;;;;;;;;5045614;27;89800;-55
2023/07/13 05:40:17;;;;;;;3.10;1.20;;;;;;;;;;5041415;27;87990;-54
2023/07/13 05:42:47;;;;;;;3.33;1.00;;;;;;;;;;5047633;27;87643;-54
2023/07/13 05:45:16;;;;;;;2.90;1.10;;;;;;;;;;5060591;27;87488;-56
2023/07/13 05:47:44;;;;;;;4.20;1.20;;;;;;;;;;5047877;27;89033;-55
2023/07/13 05:50:12;;;;;;;4.03;1.00;;;;;;;;;;5039439;27;88851;-55
2023/07/13 05:52:41;;;;;;;2.20;1.00;;;;;;;;;;5040022;27;87671;-54
2023/07/13 05:55:10;;;;;;;1.00;0.80;;;;;;;;;;5039492;27;88774;-54
2023/07/13 05:57:38;;;;;;;1.37;1.10;;;;;;;;;;5038419;27;90112;-54
2023/07/13 06:00:09;;;;;;;1.73;1.17;;;;;;;;;;5039608;27;89912;-54
2023/07/13 06:02:37;;;;;;;1.83;0.90;;;;;;;;;;5039201;28;87408;-55
2023/07/13 06:05:06;;;;;;;2.73;0.90;;;;;;;;;;5039341;27;89631;-54
2023/07/13 06:07:34;;;;;;;1.90;1.00;;;;;;;;;;5039302;27;89534;-54
2023/07/13 06:10:03;;;;;;;2.47;0.70;;;;;;;;;;5039145;27;88847;-55
2023/07/13 06:12:31;;;;;;;0.93;0.70;;;;;;;;;;5040085;28;87639;-55
2023/07/13 06:14:59;;;;;;;1.63;0.80;;;;;;;;;;5039108;27;88529;-54
2023/07/13 06:17:29;;;;;;;1.33;0.80;;;;;;;;;;5039859;27;89241;-54
2023/07/13 06:19:57;;;;;;;1.90;1.03;;;;;;;;;;5039146;27;87858;-54
2023/07/13 06:22:26;;;;;;;1.23;0.63;;;;;;;;;;5042040;27;87839;-54
2023/07/13 06:24:54;;;;;;;1.57;0.67;;;;;;;;;;5042365;27;89874;-54
2023/07/13 06:27:23;;;;;;;1.60;0.63;;;;;;;;;;5044255;27;88103;-54
2023/07/13 06:29:51;;;;;;;2.30;0.70;;;;;;;;;;5042481;27;88834;-54
2023/07/13 06:32:19;;;;;;;1.60;0.90;;;;;;;;;;5043065;28;87702;-54
2023/07/13 06:34:51;;;;;;;1.63;0.77;;;;;;;;;;5043468;27;88625;-58
2023/07/13 06:37:20;;;;;;;0.70;0.67;;;;;;;;;;5047338;27;88070;-54
2023/07/13 06:39:48;;;;;;;1.63;0.60;;;;;;;;;;5044507;27;88938;-58
2023/07/13 06:42:17;;;;;;;2.37;0.87;;;;;;;;;;5042846;27;87158;-57
2023/07/13 06:44:45;;;;;;;1.37;0.80;;;;;;;;;;5042766;27;88859;-56
2023/07/13 06:47:14;;;;;;;5.33;1.60;;;;;;;;;;5038899;27;88424;-56
2023/07/13 06:49:42;;;;;;;4.93;1.30;;;;;;;;;;5025219;27;89919;-56
2023/07/13 06:52:12;;;;;;;5.63;1.23;;;;;;;;;;5042630;27;87641;-57
2023/07/13 06:54:40;;;;;;;2.77;1.30;;;;;;;;;;5042603;27;88720;-57
2023/07/13 06:57:09;;;;;;;1.57;0.83;;;;;;;;;;5042550;27;88254;-56
2023/07/13 06:59:37;;;;;;;4.30;1.30;;;;;;;;;;5041894;27;87420;-57
2023/07/13 07:02:06;;;;;;;5.17;1.60;;;;;;;;;;5057592;27;87692;-56
2023/07/13 07:04:34;;;;;;;6.83;2.20;;;;;;;;;;5046824;27;88706;-56
2023/07/13 07:07:02;;;;;;;8.90;1.97;;;;;;;;;;5050068;27;89005;-56
2023/07/13 07:09:32;;;;;;;4.00;1.50;;;;;;;;;;5054370;27;87965;-56
2023/07/13 07:12:01;;;;;;;3.77;1.70;;;;;;;;;;5060222;27;87972;-56
2023/07/13 07:14:31;;;;;;;6.13;1.57;;;;;;;;;;5061195;27;88523;-56
2023/07/13 07:17:00;;;;;;;7.57;1.10;;;;;;;;;;5052441;27;88205;-56
2023/07/13 07:19:29;;;;;;;5.00;1.13;;;;;;;;;;5054303;27;87314;-56
2023/07/13 07:21:57;;;;;;;1.23;0.80;;;;;;;;;;5043278;27;87685;-56
2023/07/13 07:24:26;;;;;;;1.80;0.90;;;;;;;;;;5045081;27;89565;-56
2023/07/13 07:26:56;;;;;;;7.30;1.43;;;;;;;;;;5058190;27;89120;-56
2023/07/13 07:29:27;;;;;;;2.27;1.00;;;;;;;;;;5058348;27;87387;-56
2023/07/13 07:31:58;;;;;;;2.63;0.73;;;;;;;;;;5045005;27;87584;-56
2023/07/13 07:34:34;;;;;;;2.27;1.00;;;;;;;;;;5048652;27;89676;-56
2023/07/13 07:37:02;;;;;;;5.07;1.07;;;;;;;;;;5041708;27;89209;-57
2023/07/13 07:39:33;;;;;;;3.10;1.50;;;;;;;;;;5044463;27;88602;-56
2023/07/13 07:42:03;;;;;;;1.90;1.03;;;;;;;;;;5042409;27;87723;-56
2023/07/13 07:44:32;;;;;;;2.93;1.03;;;;;;;;;;5037476;27;88717;-57
2023/07/13 07:47:00;;;;;;;2.17;1.27;;;;;;;;;;5041426;27;88033;-57
2023/07/13 07:49:29;;;;;;;1.80;1.20;;;;;;;;;;5041413;27;88836;-56
2023/07/13 07:51:57;;;;;;;3.17;1.57;;;;;;;;;;5033358;28;88743;-56
2023/07/13 07:54:26;;;;;;;3.27;1.20;;;;;;;;;;5032873;27;88724;-53
2023/07/13 07:57:15;;;;;;;3.27;1.20;;;;;;;;;;5041556;27;87560;-52
2023/07/13 07:59:48;;;;;;;3.97;1.07;;;;;;;;;;5040850;27;88450;-52
2023/07/13 08:02:19;;;;;;;3.13;0.70;;;;;;;;;;5041729;27;89110;-52
2023/07/13 08:04:50;;;;;;;2.93;0.80;;;;;;;;;;5034350;27;88183;-53
2023/07/13 08:07:22;;;;;;;2.27;1.33;;;;;;;;;;5051213;27;87895;-53
2023/07/13 08:09:52;;;;;;;1.97;1.03;;;;;;;;;;5040929;27;87727;-52
2023/07/13 08:12:22;;;;;;;1.37;0.90;;;;;;;;;;5046117;27;87591;-52
2023/07/13 08:14:53;;;;;;;3.07;0.97;;;;;;;;;;5037501;27;89004;-52
2023/07/13 08:17:22;;;;;;;2.40;0.90;;;;;;;;;;5035659;27;89009;-52
2023/07/13 08:19:50;;;;;;;4.47;1.97;;;;;;;;;;5035720;27;87764;-52
2023/07/13 08:22:18;;;;;;;6.30;1.90;;;;;;;;;;5035347;27;87492;-54
2023/07/13 08:24:55;;;;;;;3.03;2.07;;;;;;;;;;5037075;27;89599;-54
2023/07/13 08:27:24;;;;;;;3.43;1.87;;;;;;;;;;5037892;27;88989;-54
2023/07/13 08:29:53;;;;;;;4.40;2.03;;;;;;;;;;5038628;27;88558;-54
2023/07/13 08:32:22;;;;;;;2.20;1.90;;;;;;;;;;5038753;28;87706;-54
2023/07/13 08:34:51;;;;;;;5.53;2.20;;;;;;;;;;5038625;27;88514;-54
2023/07/13 08:37:19;;;;;;;3.80;2.23;;;;;;;;;;5036072;27;88564;-54
2023/07/13 08:39:49;;;;;;;5.30;2.90;;;;;;;;;;5037262;27;88493;-53
2023/07/13 08:42:20;;;;;;;2.83;1.83;;;;;;;;;;5035848;27;87663;-53
2023/07/13 08:44:51;;;;;;;6.00;2.50;;;;;;;;;;5036649;27;89855;-53
2023/07/13 08:47:19;;;;;;;4.33;2.00;;;;;;;;;;5037017;27;88383;-53
2023/07/13 08:49:48;;;;;;;3.13;2.07;;;;;;;;;;5034181;27;87801;-53
2023/07/13 08:52:18;;;;;;;3.23;1.90;;;;;;;;;;5033200;27;88214;-53
2023/07/13 08:54:47;;;;;;;3.30;1.70;;;;;;;;;;5030568;27;89841;-53
2023/07/13 08:57:16;;;;;;;4.00;1.87;;;;;;;;;;5033470;27;88079;-53
2023/07/13 08:59:45;;;;;;;2.97;1.97;;;;;;;;;;5039235;27;87594;-53
2023/07/13 09:02:21;;;;;;;1.73;1.50;;;;;;;;;;5029091;27;87493;-53
2023/07/13 09:04:51;;;;;;;4.30;1.80;;;;;;;;;;5035278;27;89994;-53
2023/07/13 09:07:22;;;;;;;2.53;1.40;;;;;;;;;;5037600;27;88007;-53
2023/07/13 09:09:55;;;;;;;3.73;1.60;;;;;;;;;;5037526;27;88982;-53
2023/07/13 09:12:25;;;;;;;3.13;1.63;;;;;;;;;;5028912;27;87538;-53
2023/07/13 09:14:54;;;;;;;3.80;1.47;;;;;;;;;;5038968;27;88775;-53
2023/07/13 09:17:26;;;;;;;1.70;1.30;;;;;;;;;;5039126;27;90141;-53
2023/07/13 09:19:56;;;;;;;1.90;1.10;;;;;;;;;;5037781;27;88590;-53
2023/07/13 09:22:24;;;;;;;3.37;1.40;;;;;;;;;;5036848;27;87644;-53
2023/07/13 09:24:55;;;;;;;1.40;1.13;;;;;;;;;;5039261;27;88515;-53
2023/07/13 09:27:25;;;;;;;1.30;1.20;;;;;;;;;;5030075;27;88704;-53
2023/07/13 09:29:56;;;;;;;1.50;1.17;;;;;;;;;;5032692;27;88783;-53
2023/07/13 09:32:25;;;;;;;3.50;1.50;;;;;;;;;;5045787;27;87501;-54
2023/07/13 09:34:54;;;;;;;1.67;1.47;;;;;;;;;;5026908;27;88935;-53
2023/07/13 09:37:22;;;;;;;4.57;1.60;;;;;;;;;;5037366;28;87987;-53
2023/07/13 09:39:51;;;;;;;1.10;0.90;;;;;;;;;;5036195;28;88810;-53
2023/07/13 09:42:21;;;;;;;1.70;0.97;;;;;;;;;;5035053;28;87979;-53
2023/07/13 09:44:53;;;;;;;1.63;1.23;;;;;;;;;;5037019;28;89505;-53
2023/07/13 09:47:23;;;;;;;2.43;1.53;;;;;;;;;;5040183;27;89166;-53
2023/07/13 09:49:58;;;;;;;4.13;1.43;;;;;;;;;;5040279;27;87524;-53
2023/07/13 09:52:40;;;;;;;2.63;1.43;;;;;;;;;;5040478;27;87505;-53
2023/07/13 09:55:12;;;;;;;3.53;1.17;;;;;;;;;;5041308;27;89834;-53
2023/07/13 09:57:41;;;;;;;4.83;1.50;;;;;;;;;;5036473;27;89255;-53
2023/07/13 10:00:22;;;;;;;6.10;1.20;;;;;;;;;;5034593;28;89107;-53
2023/07/13 10:02:54;;;;;;;1.57;1.00;;;;;;;;;;5023650;28;87546;-53
2023/07/13 10:05:25;;;;;;;3.17;1.60;;;;;;;;;;5040066;28;88394;-53
2023/07/13 10:07:53;;;;;;;4.77;1.00;;;;;;;;;;5043115;28;90159;-53
2023/07/13 10:10:23;;;;;;;2.77;0.83;;;;;;;;;;5043440;27;88995;-53
2023/07/13 10:12:51;;;;;;;1.17;1.07;;;;;;;;;;5023663;28;87842;-53
2023/07/13 10:15:20;;;;;;;2.10;0.93;;;;;;;;;;5023430;28;88685;-53
2023/07/13 10:17:51;;;;;;;1.30;0.63;;;;;;;;;;5022987;28;89472;-53
2023/07/13 10:20:20;;;;;;;1.20;0.73;;;;;;;;;;5023204;28;87789;-53
2023/07/13 10:22:51;;;;;;;0.77;0.57;;;;;;;;;;5023487;28;87581;-53
2023/07/13 10:25:22;;;;;;;4.07;0.90;;;;;;;;;;5023447;28;90110;-54
2023/07/13 10:27:50;;;;;;;4.80;0.80;;;;;;;;;;5024207;28;88048;-53
2023/07/13 10:30:20;;;;;;;0.60;0.60;;;;;;;;;;5043262;27;88918;-53
2023/07/13 10:32:49;;;;;;;1.63;0.80;;;;;;;;;;5042822;27;87930;-53
2023/07/13 10:35:18;;;;;;;3.37;0.90;;;;;;;;;;5043353;27;88478;-53
2023/07/13 10:37:50;;;;;;;2.20;0.63;;;;;;;;;;5043176;28;89159;-53
2023/07/13 10:40:20;;;;;;;2.50;0.80;;;;;;;;;;5043655;27;88892;-53
2023/07/13 10:42:49;;;;;;;0.73;0.73;;;;;;;;;;5043363;27;87665;-53
2023/07/13 10:45:18;;;;;;;0.77;0.50;;;;;;;;;;5044246;27;88895;-53
2023/07/13 10:47:46;;;;;;;2.43;0.87;;;;;;;;;;5043252;27;88265;-53
2023/07/13 10:50:17;;;;;;;1.03;0.93;;;;;;;;;;5043287;27;87753;-53
2023/07/13 10:52:47;;;;;;;0.70;0.70;;;;;;;;;;5043176;27;87584;-53
2023/07/13 10:55:35;;;;;;;1.80;0.90;;;;;;;;;;5043354;27;89595;-53
2023/07/13 10:58:14;;;;;;;1.50;1.10;;;;;;;;;;5042542;27;87879;-53
2023/07/13 11:00:49;;;;;;;1.40;0.87;;;;;;;;;;5042894;27;88797;-53
2023/07/13 11:03:18;;;;;;;1.53;0.80;;;;;;;;;;5043154;27;87280;-53
2023/07/13 11:05:50;;;;;;;1.63;0.83;;;;;;;;;;5042569;27;88615;-53
2023/07/13 11:08:22;;;;;;;2.30;0.80;;;;;;;;;;5042163;27;88745;-53
2023/07/13 11:10:52;;;;;;;1.07;0.87;;;;;;;;;;5042625;28;88863;-53
2023/07/13 11:13:53;;;;;;;3.23;0.80;;;;;;;;;;5043244;27;87671;-53
2023/07/13 11:16:40;;;;;;;2.77;1.00;;;;;;;;;;5010844;28;89749;-53
2023/07/13 11:19:32;;;;;;;1.97;0.73;;;;;;;;;;5013798;28;89373;-53
2023/07/13 11:22:03;;;;;;;0.97;0.70;;;;;;;;;;5032202;27;87339;-53
2023/07/13 11:24:49;;;;;;;1.83;0.87;;;;;;;;;;5021817;28;88470;-53
2023/07/13 11:27:23;;;;;;;1.50;0.93;;;;;;;;;;5022305;28;88662;-53
2023/07/13 11:29:51;;;;;;;0.90;0.73;;;;;;;;;;5021691;28;89158;-53
2023/07/13 11:32:23;;;;;;;1.43;0.83;;;;;;;;;;5022787;28;87325;-53
2023/07/13 11:34:53;;;;;;;0.87;0.47;;;;;;;;;;5021969;28;87654;-53
2023/07/13 11:37:22;;;;;;;1.33;0.60;;;;;;;;;;5022034;28;89962;-53
2023/07/13 11:39:50;;;;;;;1.60;0.80;;;;;;;;;;5021997;28;87278;-53
2023/07/13 11:42:19;;;;;;;0.83;0.60;;;;;;;;;;5021762;28;88950;-53
2023/07/13 11:44:48;;;;;;;1.10;0.80;;;;;;;;;;5023889;27;87750;-53
2023/07/13 11:47:41;;;;;;;0.80;0.50;;;;;;;;;;5024803;27;89389;-53
2023/07/13 11:50:19;;;;;;;1.83;0.60;;;;;;;;;;5037813;28;88772;-53
2023/07/13 11:52:49;;;;;;;1.17;0.63;;;;;;;;;;5049994;27;90081;-53
2023/07/13 11:55:19;;;;;;;1.03;0.70;;;;;;;;;;5037976;27;87669;-53
2023/07/13 11:57:48;;;;;;;1.53;0.70;;;;;;;;;;5026966;27;89895;-53
2023/07/13 12:00:18;;;;;;;2.60;0.80;;;;;;;;;;5036551;27;88061;-53
2023/07/13 12:02:46;;;;;;;1.03;0.50;;;;;;;;;;5021861;27;89026;-53
2023/07/13 12:05:15;;;;;;;0.73;0.70;;;;;;;;;;5024883;27;87768;-55
2023/07/13 12:07:46;;;;;;;0.50;0.50;;;;;;;;;;5022934;27;90696;-53
2023/07/13 12:10:19;;;;;;;0.63;0.40;;;;;;;;;;5023399;27;88669;-53
2023/07/13 12:12:48;;;;;;;0.77;0.70;;;;;;;;;;5029532;27;88230;-53
2023/07/13 12:15:17;;;;;;;0.57;0.57;;;;;;;;;;5023377;27;88426;-53
2023/07/13 12:17:45;;;;;;;1.70;0.40;;;;;;;;;;5023602;28;89851;-53
2023/07/13 12:20:19;;;;;;;0.60;0.40;;;;;;;;;;5025446;27;88250;-53
2023/07/13 12:22:49;;;;;;;0.37;0.30;;;;;;;;;;5023693;27;88834;-53
2023/07/13 12:25:18;;;;;;;1.87;0.63;;;;;;;;;;5031732;27;87490;-53
2023/07/13 12:27:48;;;;;;;0.83;0.60;;;;;;;;;;5028279;27;88593;-53
2023/07/13 12:30:28;;;;;;;0.93;0.53;;;;;;;;;;5041426;27;89110;-53
2023/07/13 12:33:00;;;;;;;1.47;0.50;;;;;;;;;;5032567;27;88725;-53
2023/07/13 12:35:30;;;;;;;2.57;0.80;;;;;;;;;;5041354;27;87653;-53
2023/07/13 12:38:00;;;;;;;0.60;0.60;;;;;;;;;;5041429;27;88443;-53
2023/07/13 12:40:30;;;;;;;1.70;0.80;;;;;;;;;;5041151;27;89957;-53
2023/07/13 12:43:04;;;;;;;1.47;0.50;;;;;;;;;;5040754;27;88651;-53
2023/07/13 12:45:32;;;;;;;1.07;0.70;;;;;;;;;;5041599;27;87524;-53
2023/07/13 12:48:01;;;;;;;0.67;0.60;;;;;;;;;;5040877;27;88796;-53
2023/07/13 12:50:31;;;;;;;0.97;0.50;;;;;;;;;;5041268;27;88625;-54
2023/07/13 12:53:03;;;;;;;1.00;1.00;;;;;;;;;;5031036;28;87791;-53
2023/07/13 12:55:33;;;;;;;0.50;0.50;;;;;;;;;;5021241;28;87561;-55
2023/07/13 12:58:02;;;;;;;0.67;0.67;;;;;;;;;;5020739;28;87416;-54
2023/07/13 13:00:32;;;;;;;1.00;0.60;;;;;;;;;;5020890;28;89270;-53
2023/07/13 13:03:04;;;;;;;0.70;0.60;;;;;;;;;;5020444;28;88677;-53
2023/07/13 13:05:51;;;;;;;0.83;0.50;;;;;;;;;;5020429;28;87928;-53
2023/07/13 13:08:21;;;;;;;0.57;0.57;;;;;;;;;;5020418;28;89640;-53
2023/07/13 13:10:50;;;;;;;0.97;0.60;;;;;;;;;;5020409;28;87876;-53
2023/07/13 13:13:18;;;;;;;0.60;0.50;;;;;;;;;;5020591;28;87980;-53
2023/07/13 13:15:47;;;;;;;1.10;0.50;;;;;;;;;;5020957;28;87684;-53
2023/07/13 13:18:17;;;;;;;3.43;0.70;;;;;;;;;;5020690;28;88616;-53
2023/07/13 13:20:46;;;;;;;1.37;0.50;;;;;;;;;;5020643;28;88278;-53
2023/07/13 13:23:17;;;;;;;2.67;0.97;;;;;;;;;;5020373;28;87321;-53
2023/07/13 13:25:47;;;;;;;1.97;0.83;;;;;;;;;;5020655;28;87353;-53
2023/07/13 13:28:17;;;;;;;1.90;0.90;;;;;;;;;;5020482;28;89705;-53
2023/07/13 13:30:46;;;;;;;1.37;0.70;;;;;;;;;;5021651;28;89012;-53
2023/07/13 13:33:15;;;;;;;2.47;0.90;;;;;;;;;;5023912;28;89607;-53
2023/07/13 13:35:43;;;;;;;1.60;0.77;;;;;;;;;;5022207;28;87639;-53
2023/07/13 13:38:14;;;;;;;0.70;0.70;;;;;;;;;;5023945;28;89635;-53
2023/07/13 13:40:42;;;;;;;0.80;0.53;;;;;;;;;;5023628;28;89161;-53
2023/07/13 13:43:17;;;;;;;0.93;0.67;;;;;;;;;;5023404;28;87867;-54
2023/07/13 13:45:46;;;;;;;1.30;0.70;;;;;;;;;;5024137;28;87494;-55
2023/07/13 13:48:18;;;;;;;1.60;0.80;;;;;;;;;;5023240;28;89606;-55
2023/07/13 13:50:47;;;;;;;3.83;1.00;;;;;;;;;;5023579;28;88048;-54
2023/07/13 13:53:15;;;;;;;144.47;53.23;;;;;;;;;;5023455;28;87347;-55
2023/07/13 13:55:44;;;;;;;885.77;386.87;;;;;;;;;;5022437;28;87898;-54
2023/07/13 13:58:12;;;;;;;562.33;247.17;;;;;;;;;;5022609;28;88913;-54
2023/07/13 14:00:44;;;;;;;489.87;190.17;;;;;;;;;;5022472;28;89093;-54
2023/07/13 14:03:15;;;;;;;381.50;142.57;;;;;;;;;;5022320;28;87932;-55
2023/07/13 14:05:43;;;;;;;321.17;122.57;;;;;;;;;;5022260;28;87653;-56
2023/07/13 14:08:14;;;;;;;220.50;86.73;;;;;;;;;;5022161;28;88515;-55
2023/07/13 14:10:42;;;;;;;324.97;124.97;;;;;;;;;;5019519;28;88742;-57
2023/07/13 14:13:17;;;;;;;190.73;72.40;;;;;;;;;;5021780;28;88110;-56
2023/07/13 14:15:47;;;;;;;124.73;52.23;;;;;;;;;;5022498;28;87457;-56
2023/07/13 14:18:17;;;;;;;113.40;44.63;;;;;;;;;;5022390;28;88417;-56
2023/07/13 14:20:46;;;;;;;87.70;37.97;;;;;;;;;;5022193;28;91018;-57
2023/07/13 14:23:15;;;;;;;78.40;33.77;;;;;;;;;;5022196;28;88708;-57
2023/07/13 14:25:43;;;;;;;61.90;27.13;;;;;;;;;;5022295;28;87722;-55
2023/07/13 14:28:21;;;;;;;63.93;24.13;;;;;;;;;;5021950;28;89260;-56
2023/07/13 14:30:51;;;;;;;44.63;19.20;;;;;;;;;;5022189;28;88261;-55
2023/07/13 14:33:20;;;;;;;38.27;15.03;;;;;;;;;;5022080;28;88764;-55
2023/07/13 14:35:48;;;;;;;35.53;15.10;;;;;;;;;;5022168;28;87661;-56
2023/07/13 14:38:18;;;;;;;23.80;11.23;;;;;;;;;;5021994;28;89751;-56
2023/07/13 14:40:47;;;;;;;22.07;9.70;;;;;;;;;;5021805;28;87912;-55
2023/07/13 14:43:16;;;;;;;20.17;8.63;;;;;;;;;;5021571;28;88947;-55
2023/07/13 14:45:44;;;;;;;11.77;6.27;;;;;;;;;;5022349;28;87893;-56
2023/07/13 14:48:16;;;;;;;13.87;5.37;;;;;;;;;;5022131;28;88604;-57
2023/07/13 14:50:46;;;;;;;9.70;4.57;;;;;;;;;;5022615;28;87710;-55
2023/07/13 14:53:14;;;;;;;10.40;3.40;;;;;;;;;;5022104;28;87308;-56
2023/07/13 14:55:43;;;;;;;8.83;4.27;;;;;;;;;;5022581;28;87637;-56
2023/07/13 14:58:13;;;;;;;6.83;3.80;;;;;;;;;;5022589;28;89742;-56